sensor_id;sensor_type;location;lat;lon;timestamp;P1;durP1;ratioP1;P2;durP2;ratioP2
69161;SDS011;56269;51.738;21.652;2023-01-16T00:02:06;11.20;;;4.53;;
69161;SDS011;56269;51.738;21.652;2023-01-16T00:04:32;12.95;;;5.18;;
69161;SDS011;56269;51.738;21.652;2023-01-16T00:07:00;12.18;;;4.45;;
69161;SDS011;56269;51.738;21.652;2023-01-16T00:09:26;13.20;;;4.85;;
69161;SDS011;56269;51.738;21.652;2023-01-16T00:11:52;13.32;;;4.95;;
69161;SDS011;56269;51.738;21.652;2023-01-16T00:14:18;14.93;;;5.23;;
69161;SDS011;56269;51.738;21.652;2023-01-16T00:16:45;11.93;;;4.30;;
69161;SDS011;56269;51.738;21.652;2023-01-16T00:19:11;8.15;;;3.67;;
69161;SDS011;56269;51.738;21.652;2023-01-16T00:21:37;12.80;;;5.47;;
69161;SDS011;56269;51.738;21.652;2023-01-16T00:24:04;11.85;;;4.93;;
69161;SDS011;56269;51.738;21.652;2023-01-16T00:26:32;12.90;;;5.00;;
69161;SDS011;56269;51.738;21.652;2023-01-16T00:28:58;12.90;;;5.60;;
69161;SDS011;56269;51.738;21.652;2023-01-16T00:31:25;14.68;;;5.95;;
69161;SDS011;56269;51.738;21.652;2023-01-16T00:33:51;12.88;;;5.45;;
69161;SDS011;56269;51.738;21.652;2023-01-16T00:36:17;11.68;;;4.75;;
69161;SDS011;56269;51.738;21.652;2023-01-16T00:38:43;12.83;;;5.27;;
69161;SDS011;56269;51.738;21.652;2023-01-16T00:41:10;15.60;;;5.57;;
69161;SDS011;56269;51.738;21.652;2023-01-16T00:43:36;13.60;;;5.45;;
69161;SDS011;56269;51.738;21.652;2023-01-16T00:46:02;9.48;;;3.83;;
69161;SDS011;56269;51.738;21.652;2023-01-16T00:48:29;12.70;;;5.10;;
69161;SDS011;56269;51.738;21.652;2023-01-16T00:50:55;14.10;;;4.93;;
69161;SDS011;56269;51.738;21.652;2023-01-16T00:53:21;12.18;;;4.68;;
69161;SDS011;56269;51.738;21.652;2023-01-16T00:55:49;13.55;;;5.55;;
69161;SDS011;56269;51.738;21.652;2023-01-16T00:58:16;11.70;;;4.78;;
69161;SDS011;56269;51.738;21.652;2023-01-16T01:00:42;10.65;;;4.35;;
69161;SDS011;56269;51.738;21.652;2023-01-16T01:03:09;13.37;;;5.37;;
69161;SDS011;56269;51.738;21.652;2023-01-16T01:05:36;11.05;;;4.63;;
69161;SDS011;56269;51.738;21.652;2023-01-16T01:08:03;13.18;;;5.00;;
69161;SDS011;56269;51.738;21.652;2023-01-16T01:10:31;11.18;;;4.50;;
69161;SDS011;56269;51.738;21.652;2023-01-16T01:13:07;10.90;;;4.32;;
69161;SDS011;56269;51.738;21.652;2023-01-16T01:15:33;12.20;;;4.50;;
69161;SDS011;56269;51.738;21.652;2023-01-16T01:17:59;11.48;;;4.50;;
69161;SDS011;56269;51.738;21.652;2023-01-16T01:20:26;11.20;;;4.72;;
69161;SDS011;56269;51.738;21.652;2023-01-16T01:22:52;10.85;;;4.32;;
69161;SDS011;56269;51.738;21.652;2023-01-16T01:25:19;14.88;;;5.25;;
69161;SDS011;56269;51.738;21.652;2023-01-16T01:27:45;12.97;;;5.33;;
69161;SDS011;56269;51.738;21.652;2023-01-16T01:30:12;13.60;;;5.18;;
69161;SDS011;56269;51.738;21.652;2023-01-16T01:32:38;17.65;;;5.40;;
69161;SDS011;56269;51.738;21.652;2023-01-16T01:35:05;12.90;;;4.97;;
69161;SDS011;56269;51.738;21.652;2023-01-16T01:37:32;11.85;;;4.80;;
69161;SDS011;56269;51.738;21.652;2023-01-16T01:39:59;9.87;;;4.10;;
69161;SDS011;56269;51.738;21.652;2023-01-16T01:42:25;12.48;;;4.80;;
69161;SDS011;56269;51.738;21.652;2023-01-16T01:45:26;8.85;;;3.58;;
69161;SDS011;56269;51.738;21.652;2023-01-16T01:50:55;11.55;;;4.85;;
69161;SDS011;56269;51.738;21.652;2023-01-16T01:53:39;13.17;;;4.50;;
69161;SDS011;56269;51.738;21.652;2023-01-16T01:56:18;14.15;;;5.30;;
69161;SDS011;56269;51.738;21.652;2023-01-16T01:58:50;11.60;;;4.78;;
69161;SDS011;56269;51.738;21.652;2023-01-16T02:01:20;10.55;;;4.28;;
69161;SDS011;56269;51.738;21.652;2023-01-16T02:03:48;12.63;;;5.68;;
69161;SDS011;56269;51.738;21.652;2023-01-16T02:06:25;12.33;;;4.63;;
69161;SDS011;56269;51.738;21.652;2023-01-16T02:09:02;13.25;;;5.18;;
69161;SDS011;56269;51.738;21.652;2023-01-16T02:11:37;13.18;;;4.65;;
69161;SDS011;56269;51.738;21.652;2023-01-16T02:14:09;12.23;;;5.15;;
69161;SDS011;56269;51.738;21.652;2023-01-16T02:16:38;12.27;;;4.78;;
69161;SDS011;56269;51.738;21.652;2023-01-16T02:24:36;12.00;;;5.10;;
69161;SDS011;56269;51.738;21.652;2023-01-16T02:40:43;12.05;;;5.28;;
69161;SDS011;56269;51.738;21.652;2023-01-16T02:49:03;15.02;;;4.88;;
69161;SDS011;56269;51.738;21.652;2023-01-16T02:51:37;15.88;;;6.20;;
69161;SDS011;56269;51.738;21.652;2023-01-16T02:56:56;13.73;;;5.35;;
69161;SDS011;56269;51.738;21.652;2023-01-16T02:59:31;15.47;;;6.13;;
69161;SDS011;56269;51.738;21.652;2023-01-16T03:01:58;14.95;;;6.15;;
69161;SDS011;56269;51.738;21.652;2023-01-16T03:12:52;16.57;;;6.10;;
69161;SDS011;56269;51.738;21.652;2023-01-16T03:15:42;15.63;;;6.25;;
69161;SDS011;56269;51.738;21.652;2023-01-16T03:18:37;16.95;;;6.55;;
69161;SDS011;56269;51.738;21.652;2023-01-16T03:23:54;14.40;;;5.85;;
69161;SDS011;56269;51.738;21.652;2023-01-16T03:26:27;16.97;;;6.57;;
69161;SDS011;56269;51.738;21.652;2023-01-16T03:34:53;18.25;;;7.75;;
69161;SDS011;56269;51.738;21.652;2023-01-16T03:37:31;16.42;;;6.68;;
69161;SDS011;56269;51.738;21.652;2023-01-16T03:40:09;15.73;;;6.63;;
69161;SDS011;56269;51.738;21.652;2023-01-16T03:42:46;15.05;;;6.43;;
69161;SDS011;56269;51.738;21.652;2023-01-16T03:50:48;20.45;;;7.07;;
69161;SDS011;56269;51.738;21.652;2023-01-16T03:53:28;21.07;;;6.97;;
69161;SDS011;56269;51.738;21.652;2023-01-16T03:58:45;18.58;;;7.40;;
69161;SDS011;56269;51.738;21.652;2023-01-16T04:04:26;19.02;;;7.43;;
69161;SDS011;56269;51.738;21.652;2023-01-16T04:06:36;19.10;;;8.00;;
69161;SDS011;56269;51.738;21.652;2023-01-16T04:09:12;20.48;;;7.40;;
69161;SDS011;56269;51.738;21.652;2023-01-16T04:11:43;19.48;;;7.50;;
69161;SDS011;56269;51.738;21.652;2023-01-16T04:14:11;18.77;;;7.28;;
69161;SDS011;56269;51.738;21.652;2023-01-16T04:16:39;19.67;;;8.30;;
69161;SDS011;56269;51.738;21.652;2023-01-16T04:19:09;17.73;;;7.70;;
69161;SDS011;56269;51.738;21.652;2023-01-16T04:21:40;20.80;;;8.13;;
69161;SDS011;56269;51.738;21.652;2023-01-16T04:24:09;21.88;;;8.05;;
69161;SDS011;56269;51.738;21.652;2023-01-16T04:26:35;22.15;;;7.40;;
69161;SDS011;56269;51.738;21.652;2023-01-16T04:29:01;20.65;;;7.57;;
69161;SDS011;56269;51.738;21.652;2023-01-16T04:31:27;20.83;;;8.80;;
69161;SDS011;56269;51.738;21.652;2023-01-16T04:33:54;20.40;;;7.80;;
69161;SDS011;56269;51.738;21.652;2023-01-16T04:36:21;21.92;;;9.00;;
69161;SDS011;56269;51.738;21.652;2023-01-16T04:38:47;23.40;;;8.77;;
69161;SDS011;56269;51.738;21.652;2023-01-16T04:41:13;23.30;;;9.40;;
69161;SDS011;56269;51.738;21.652;2023-01-16T04:44:00;23.90;;;8.53;;
69161;SDS011;56269;51.738;21.652;2023-01-16T04:46:26;22.08;;;9.52;;
69161;SDS011;56269;51.738;21.652;2023-01-16T04:48:52;23.15;;;9.27;;
69161;SDS011;56269;51.738;21.652;2023-01-16T04:51:18;21.38;;;8.85;;
69161;SDS011;56269;51.738;21.652;2023-01-16T04:53:45;23.63;;;9.27;;
69161;SDS011;56269;51.738;21.652;2023-01-16T04:56:11;23.07;;;8.73;;
69161;SDS011;56269;51.738;21.652;2023-01-16T04:58:37;26.55;;;9.85;;
69161;SDS011;56269;51.738;21.652;2023-01-16T05:01:03;23.58;;;9.60;;
69161;SDS011;56269;51.738;21.652;2023-01-16T05:03:30;25.38;;;10.80;;
69161;SDS011;56269;51.738;21.652;2023-01-16T05:05:56;23.95;;;9.52;;
69161;SDS011;56269;51.738;21.652;2023-01-16T05:08:23;20.23;;;7.87;;
69161;SDS011;56269;51.738;21.652;2023-01-16T05:10:53;23.17;;;9.23;;
69161;SDS011;56269;51.738;21.652;2023-01-16T05:13:20;20.15;;;8.75;;
69161;SDS011;56269;51.738;21.652;2023-01-16T05:15:47;20.95;;;8.40;;
69161;SDS011;56269;51.738;21.652;2023-01-16T05:18:13;23.40;;;9.65;;
69161;SDS011;56269;51.738;21.652;2023-01-16T05:20:39;26.10;;;9.77;;
69161;SDS011;56269;51.738;21.652;2023-01-16T05:23:06;25.42;;;10.50;;
69161;SDS011;56269;51.738;21.652;2023-01-16T05:25:35;34.50;;;12.48;;
69161;SDS011;56269;51.738;21.652;2023-01-16T05:28:01;36.45;;;13.98;;
69161;SDS011;56269;51.738;21.652;2023-01-16T05:30:28;23.88;;;9.57;;
69161;SDS011;56269;51.738;21.652;2023-01-16T05:32:55;23.03;;;8.77;;
69161;SDS011;56269;51.738;21.652;2023-01-16T05:35:21;26.05;;;9.50;;
69161;SDS011;56269;51.738;21.652;2023-01-16T05:37:47;25.98;;;9.70;;
69161;SDS011;56269;51.738;21.652;2023-01-16T05:40:13;23.13;;;8.93;;
69161;SDS011;56269;51.738;21.652;2023-01-16T05:42:43;27.20;;;10.43;;
69161;SDS011;56269;51.738;21.652;2023-01-16T05:45:10;42.47;;;19.03;;
69161;SDS011;56269;51.738;21.652;2023-01-16T05:47:37;35.28;;;14.43;;
69161;SDS011;56269;51.738;21.652;2023-01-16T05:50:03;24.83;;;10.43;;
69161;SDS011;56269;51.738;21.652;2023-01-16T05:52:30;38.10;;;15.05;;
69161;SDS011;56269;51.738;21.652;2023-01-16T05:54:56;27.83;;;11.07;;
69161;SDS011;56269;51.738;21.652;2023-01-16T05:57:22;31.83;;;11.97;;
69161;SDS011;56269;51.738;21.652;2023-01-16T05:59:49;34.22;;;13.38;;
69161;SDS011;56269;51.738;21.652;2023-01-16T06:02:17;33.80;;;13.35;;
69161;SDS011;56269;51.738;21.652;2023-01-16T06:04:44;33.45;;;13.48;;
69161;SDS011;56269;51.738;21.652;2023-01-16T06:07:11;33.85;;;14.00;;
69161;SDS011;56269;51.738;21.652;2023-01-16T06:09:37;32.57;;;13.30;;
69161;SDS011;56269;51.738;21.652;2023-01-16T06:12:04;31.35;;;12.88;;
69161;SDS011;56269;51.738;21.652;2023-01-16T06:14:35;37.67;;;14.68;;
69161;SDS011;56269;51.738;21.652;2023-01-16T06:17:02;36.72;;;14.60;;
69161;SDS011;56269;51.738;21.652;2023-01-16T06:19:28;35.97;;;13.68;;
69161;SDS011;56269;51.738;21.652;2023-01-16T06:21:54;40.80;;;13.40;;
69161;SDS011;56269;51.738;21.652;2023-01-16T06:24:20;29.40;;;11.43;;
69161;SDS011;56269;51.738;21.652;2023-01-16T06:26:47;30.52;;;11.43;;
69161;SDS011;56269;51.738;21.652;2023-01-16T06:29:13;28.70;;;10.93;;
69161;SDS011;56269;51.738;21.652;2023-01-16T06:31:39;29.67;;;10.95;;
69161;SDS011;56269;51.738;21.652;2023-01-16T06:34:05;30.63;;;11.17;;
69161;SDS011;56269;51.738;21.652;2023-01-16T06:36:32;28.65;;;10.05;;
69161;SDS011;56269;51.738;21.652;2023-01-16T06:38:58;26.17;;;9.98;;
69161;SDS011;56269;51.738;21.652;2023-01-16T06:41:24;28.23;;;10.77;;
69161;SDS011;56269;51.738;21.652;2023-01-16T06:43:50;26.88;;;10.40;;
69161;SDS011;56269;51.738;21.652;2023-01-16T06:46:17;28.07;;;10.40;;
69161;SDS011;56269;51.738;21.652;2023-01-16T06:48:43;30.15;;;11.18;;
69161;SDS011;56269;51.738;21.652;2023-01-16T06:51:09;28.13;;;10.85;;
69161;SDS011;56269;51.738;21.652;2023-01-16T06:53:36;26.55;;;10.85;;
69161;SDS011;56269;51.738;21.652;2023-01-16T06:56:03;27.40;;;10.45;;
69161;SDS011;56269;51.738;21.652;2023-01-16T06:58:29;25.70;;;9.00;;
69161;SDS011;56269;51.738;21.652;2023-01-16T07:00:55;34.58;;;11.48;;
69161;SDS011;56269;51.738;21.652;2023-01-16T07:03:21;27.17;;;10.00;;
69161;SDS011;56269;51.738;21.652;2023-01-16T07:05:48;31.90;;;11.88;;
69161;SDS011;56269;51.738;21.652;2023-01-16T07:08:15;31.13;;;11.48;;
69161;SDS011;56269;51.738;21.652;2023-01-16T07:10:42;30.60;;;11.03;;
69161;SDS011;56269;51.738;21.652;2023-01-16T07:13:11;25.33;;;10.05;;
69161;SDS011;56269;51.738;21.652;2023-01-16T07:15:37;25.17;;;10.75;;
69161;SDS011;56269;51.738;21.652;2023-01-16T07:18:22;32.30;;;11.48;;
69161;SDS011;56269;51.738;21.652;2023-01-16T07:21:10;29.70;;;10.73;;
69161;SDS011;56269;51.738;21.652;2023-01-16T07:24:04;26.27;;;9.50;;
69161;SDS011;56269;51.738;21.652;2023-01-16T07:26:34;27.02;;;9.63;;
69161;SDS011;56269;51.738;21.652;2023-01-16T07:29:03;27.77;;;10.68;;
69161;SDS011;56269;51.738;21.652;2023-01-16T07:31:30;28.88;;;11.23;;
69161;SDS011;56269;51.738;21.652;2023-01-16T07:33:58;29.17;;;11.60;;
69161;SDS011;56269;51.738;21.652;2023-01-16T07:36:25;31.50;;;11.53;;
69161;SDS011;56269;51.738;21.652;2023-01-16T07:38:51;30.52;;;11.35;;
69161;SDS011;56269;51.738;21.652;2023-01-16T07:41:17;30.52;;;12.38;;
69161;SDS011;56269;51.738;21.652;2023-01-16T07:43:43;27.48;;;10.70;;
69161;SDS011;56269;51.738;21.652;2023-01-16T07:46:10;31.40;;;12.18;;
69161;SDS011;56269;51.738;21.652;2023-01-16T07:48:36;26.93;;;10.47;;
69161;SDS011;56269;51.738;21.652;2023-01-16T07:51:02;23.27;;;9.43;;
69161;SDS011;56269;51.738;21.652;2023-01-16T07:53:30;24.60;;;9.65;;
69161;SDS011;56269;51.738;21.652;2023-01-16T07:55:58;33.55;;;12.30;;
69161;SDS011;56269;51.738;21.652;2023-01-16T07:58:26;28.35;;;9.40;;
69161;SDS011;56269;51.738;21.652;2023-01-16T08:00:53;24.60;;;7.67;;
69161;SDS011;56269;51.738;21.652;2023-01-16T08:03:21;37.15;;;6.93;;
69161;SDS011;56269;51.738;21.652;2023-01-16T08:05:48;20.33;;;6.13;;
69161;SDS011;56269;51.738;21.652;2023-01-16T08:08:18;51.50;;;7.55;;
69161;SDS011;56269;51.738;21.652;2023-01-16T08:10:46;29.70;;;7.25;;
69161;SDS011;56269;51.738;21.652;2023-01-16T08:13:12;68.50;;;8.77;;
69161;SDS011;56269;51.738;21.652;2023-01-16T08:15:38;33.85;;;7.43;;
69161;SDS011;56269;51.738;21.652;2023-01-16T08:18:04;33.88;;;7.35;;
69161;SDS011;56269;51.738;21.652;2023-01-16T08:20:31;64.18;;;8.13;;
69161;SDS011;56269;51.738;21.652;2023-01-16T08:22:57;23.13;;;6.18;;
69161;SDS011;56269;51.738;21.652;2023-01-16T08:25:24;43.80;;;9.20;;
69161;SDS011;56269;51.738;21.652;2023-01-16T08:27:50;17.65;;;6.55;;
69161;SDS011;56269;51.738;21.652;2023-01-16T08:30:17;33.55;;;8.10;;
69161;SDS011;56269;51.738;21.652;2023-01-16T08:32:43;60.13;;;11.38;;
69161;SDS011;56269;51.738;21.652;2023-01-16T08:35:10;39.50;;;8.52;;
69161;SDS011;56269;51.738;21.652;2023-01-16T08:37:36;50.93;;;10.63;;
69161;SDS011;56269;51.738;21.652;2023-01-16T08:40:02;51.78;;;11.73;;
69161;SDS011;56269;51.738;21.652;2023-01-16T08:42:30;25.15;;;7.75;;
69161;SDS011;56269;51.738;21.652;2023-01-16T08:45:14;20.95;;;8.07;;
69161;SDS011;56269;51.738;21.652;2023-01-16T08:47:59;23.77;;;8.73;;
69161;SDS011;56269;51.738;21.652;2023-01-16T08:50:45;28.57;;;9.43;;
69161;SDS011;56269;51.738;21.652;2023-01-16T08:53:31;27.55;;;8.98;;
69161;SDS011;56269;51.738;21.652;2023-01-16T08:55:58;14.45;;;5.80;;
69161;SDS011;56269;51.738;21.652;2023-01-16T08:58:24;15.63;;;4.97;;
69161;SDS011;56269;51.738;21.652;2023-01-16T09:00:51;19.77;;;7.57;;
69161;SDS011;56269;51.738;21.652;2023-01-16T09:03:17;22.27;;;8.53;;
69161;SDS011;56269;51.738;21.652;2023-01-16T09:05:43;26.20;;;8.90;;
69161;SDS011;56269;51.738;21.652;2023-01-16T09:08:10;26.77;;;8.15;;
69161;SDS011;56269;51.738;21.652;2023-01-16T09:10:37;21.10;;;7.28;;
69161;SDS011;56269;51.738;21.652;2023-01-16T09:13:03;24.90;;;7.50;;
69161;SDS011;56269;51.738;21.652;2023-01-16T09:15:48;25.30;;;7.47;;
69161;SDS011;56269;51.738;21.652;2023-01-16T09:18:14;26.67;;;8.10;;
69161;SDS011;56269;51.738;21.652;2023-01-16T09:20:41;35.70;;;8.38;;
69161;SDS011;56269;51.738;21.652;2023-01-16T09:23:07;21.27;;;6.38;;
69161;SDS011;56269;51.738;21.652;2023-01-16T09:25:33;22.92;;;6.72;;
69161;SDS011;56269;51.738;21.652;2023-01-16T09:27:59;20.17;;;6.40;;
69161;SDS011;56269;51.738;21.652;2023-01-16T09:30:26;29.95;;;9.10;;
69161;SDS011;56269;51.738;21.652;2023-01-16T09:32:53;19.45;;;6.53;;
69161;SDS011;56269;51.738;21.652;2023-01-16T09:35:19;28.70;;;8.90;;
69161;SDS011;56269;51.738;21.652;2023-01-16T09:37:46;23.87;;;8.63;;
69161;SDS011;56269;51.738;21.652;2023-01-16T09:40:13;25.17;;;9.05;;
69161;SDS011;56269;51.738;21.652;2023-01-16T09:42:46;30.42;;;10.15;;
69161;SDS011;56269;51.738;21.652;2023-01-16T09:45:38;25.75;;;8.73;;
69161;SDS011;56269;51.738;21.652;2023-01-16T09:48:16;23.33;;;7.75;;
69161;SDS011;56269;51.738;21.652;2023-01-16T09:51:10;19.97;;;6.90;;
69161;SDS011;56269;51.738;21.652;2023-01-16T09:53:45;33.45;;;11.48;;
69161;SDS011;56269;51.738;21.652;2023-01-16T09:56:40;26.38;;;8.75;;
69161;SDS011;56269;51.738;21.652;2023-01-16T09:59:35;32.25;;;9.90;;
69161;SDS011;56269;51.738;21.652;2023-01-16T10:02:07;31.70;;;10.90;;
69161;SDS011;56269;51.738;21.652;2023-01-16T10:04:39;22.90;;;9.10;;
69161;SDS011;56269;51.738;21.652;2023-01-16T10:10:09;29.77;;;11.35;;
69161;SDS011;56269;51.738;21.652;2023-01-16T10:26:39;15.88;;;7.05;;
69161;SDS011;56269;51.738;21.652;2023-01-16T10:32:11;15.77;;;7.03;;
69161;SDS011;56269;51.738;21.652;2023-01-16T10:37:17;17.45;;;7.40;;
69161;SDS011;56269;51.738;21.652;2023-01-16T10:39:44;15.68;;;6.85;;
69161;SDS011;56269;51.738;21.652;2023-01-16T10:42:12;19.08;;;7.18;;
69161;SDS011;56269;51.738;21.652;2023-01-16T10:45:10;20.20;;;9.20;;
69161;SDS011;56269;51.738;21.652;2023-01-16T10:47:57;18.13;;;7.47;;
69161;SDS011;56269;51.738;21.652;2023-01-16T10:50:41;19.95;;;8.23;;
69161;SDS011;56269;51.738;21.652;2023-01-16T10:53:09;20.75;;;8.27;;
69161;SDS011;56269;51.738;21.652;2023-01-16T10:55:44;24.67;;;10.10;;
69161;SDS011;56269;51.738;21.652;2023-01-16T11:01:13;18.20;;;6.57;;
69161;SDS011;56269;51.738;21.652;2023-01-16T11:06:25;20.23;;;8.75;;
69161;SDS011;56269;51.738;21.652;2023-01-16T11:09:06;17.40;;;7.18;;
69161;SDS011;56269;51.738;21.652;2023-01-16T11:11:42;22.37;;;8.63;;
69161;SDS011;56269;51.738;21.652;2023-01-16T11:14:31;20.40;;;8.40;;
69161;SDS011;56269;51.738;21.652;2023-01-16T11:17:37;17.48;;;7.50;;
69161;SDS011;56269;51.738;21.652;2023-01-16T11:20:27;19.65;;;8.55;;
69161;SDS011;56269;51.738;21.652;2023-01-16T11:22:58;15.95;;;6.28;;
69161;SDS011;56269;51.738;21.652;2023-01-16T11:25:29;14.43;;;6.07;;
69161;SDS011;56269;51.738;21.652;2023-01-16T11:27:58;15.63;;;7.25;;
69161;SDS011;56269;51.738;21.652;2023-01-16T11:30:31;14.40;;;6.30;;
69161;SDS011;56269;51.738;21.652;2023-01-16T11:33:02;14.27;;;6.70;;
69161;SDS011;56269;51.738;21.652;2023-01-16T11:35:34;20.20;;;7.85;;
69161;SDS011;56269;51.738;21.652;2023-01-16T11:38:02;21.97;;;8.13;;
69161;SDS011;56269;51.738;21.652;2023-01-16T11:40:37;17.92;;;7.53;;
69161;SDS011;56269;51.738;21.652;2023-01-16T11:43:13;16.00;;;6.30;;
69161;SDS011;56269;51.738;21.652;2023-01-16T11:45:59;16.00;;;6.75;;
69161;SDS011;56269;51.738;21.652;2023-01-16T11:48:44;15.23;;;6.95;;
69161;SDS011;56269;51.738;21.652;2023-01-16T11:51:17;13.87;;;6.30;;
69161;SDS011;56269;51.738;21.652;2023-01-16T11:53:47;14.40;;;6.07;;
69161;SDS011;56269;51.738;21.652;2023-01-16T11:59:07;16.50;;;7.20;;
69161;SDS011;56269;51.738;21.652;2023-01-16T12:02:02;20.73;;;8.88;;
69161;SDS011;56269;51.738;21.652;2023-01-16T12:08:05;19.88;;;8.73;;
69161;SDS011;56269;51.738;21.652;2023-01-16T12:10:54;18.70;;;8.60;;
69161;SDS011;56269;51.738;21.652;2023-01-16T12:16:50;26.80;;;10.65;;
69161;SDS011;56269;51.738;21.652;2023-01-16T12:25:08;31.10;;;12.63;;
69161;SDS011;56269;51.738;21.652;2023-01-16T12:28:12;37.00;;;16.40;;
69161;SDS011;56269;51.738;21.652;2023-01-16T12:30:58;31.98;;;13.55;;
69161;SDS011;56269;51.738;21.652;2023-01-16T12:33:45;40.60;;;16.83;;
69161;SDS011;56269;51.738;21.652;2023-01-16T12:36:39;43.53;;;17.67;;
69161;SDS011;56269;51.738;21.652;2023-01-16T12:39:48;30.40;;;12.43;;
69161;SDS011;56269;51.738;21.652;2023-01-16T12:58:53;30.77;;;13.80;;
69161;SDS011;56269;51.738;21.652;2023-01-16T13:01:24;27.87;;;12.03;;
69161;SDS011;56269;51.738;21.652;2023-01-16T13:06:36;30.35;;;13.18;;
69161;SDS011;56269;51.738;21.652;2023-01-16T13:09:11;28.35;;;12.20;;
69161;SDS011;56269;51.738;21.652;2023-01-16T13:12:35;25.10;;;10.80;;
69161;SDS011;56269;51.738;21.652;2023-01-16T13:15:01;34.73;;;14.37;;
69161;SDS011;56269;51.738;21.652;2023-01-16T13:17:40;28.67;;;12.15;;
69161;SDS011;56269;51.738;21.652;2023-01-16T13:20:12;28.75;;;13.00;;
69161;SDS011;56269;51.738;21.652;2023-01-16T13:23:01;28.48;;;12.05;;
69161;SDS011;56269;51.738;21.652;2023-01-16T13:25:37;27.92;;;11.23;;
69161;SDS011;56269;51.738;21.652;2023-01-16T13:30:55;26.45;;;11.43;;
69161;SDS011;56269;51.738;21.652;2023-01-16T13:33:27;22.27;;;10.32;;
69161;SDS011;56269;51.738;21.652;2023-01-16T13:38:46;32.75;;;12.75;;
69161;SDS011;56269;51.738;21.652;2023-01-16T13:41:41;19.50;;;8.03;;
69161;SDS011;56269;51.738;21.652;2023-01-16T13:44:16;24.85;;;9.52;;
69161;SDS011;56269;51.738;21.652;2023-01-16T13:47:06;17.65;;;7.57;;
69161;SDS011;56269;51.738;21.652;2023-01-16T13:49:38;19.48;;;8.02;;
69161;SDS011;56269;51.738;21.652;2023-01-16T13:52:11;25.23;;;9.93;;
69161;SDS011;56269;51.738;21.652;2023-01-16T13:54:45;23.93;;;8.80;;
69161;SDS011;56269;51.738;21.652;2023-01-16T13:57:18;22.35;;;8.85;;
69161;SDS011;56269;51.738;21.652;2023-01-16T13:59:48;26.42;;;11.40;;
69161;SDS011;56269;51.738;21.652;2023-01-16T14:10:46;24.25;;;10.05;;
69161;SDS011;56269;51.738;21.652;2023-01-16T14:13:32;23.40;;;9.18;;
69161;SDS011;56269;51.738;21.652;2023-01-16T14:16:25;24.40;;;11.10;;
69161;SDS011;56269;51.738;21.652;2023-01-16T14:21:39;45.43;;;14.97;;
69161;SDS011;56269;51.738;21.652;2023-01-16T14:24:25;30.00;;;12.15;;
69161;SDS011;56269;51.738;21.652;2023-01-16T14:26:58;27.15;;;11.63;;
69161;SDS011;56269;51.738;21.652;2023-01-16T14:34:39;40.17;;;14.63;;
69161;SDS011;56269;51.738;21.652;2023-01-16T14:37:33;24.08;;;10.90;;
69161;SDS011;56269;51.738;21.652;2023-01-16T14:40:03;30.90;;;12.02;;
69161;SDS011;56269;51.738;21.652;2023-01-16T14:42:46;29.20;;;12.85;;
69161;SDS011;56269;51.738;21.652;2023-01-16T14:45:35;34.33;;;14.35;;
69161;SDS011;56269;51.738;21.652;2023-01-16T14:53:55;49.33;;;20.02;;
69161;SDS011;56269;51.738;21.652;2023-01-16T14:56:42;20.70;;;9.43;;
69161;SDS011;56269;51.738;21.652;2023-01-16T14:59:13;39.95;;;15.25;;
69161;SDS011;56269;51.738;21.652;2023-01-16T15:02:07;47.83;;;15.33;;
69161;SDS011;56269;51.738;21.652;2023-01-16T15:05:04;44.08;;;17.00;;
69161;SDS011;56269;51.738;21.652;2023-01-16T15:07:53;33.15;;;13.48;;
69161;SDS011;56269;51.738;21.652;2023-01-16T15:13:13;32.95;;;12.60;;
69161;SDS011;56269;51.738;21.652;2023-01-16T15:15:47;26.97;;;11.23;;
69161;SDS011;56269;51.738;21.652;2023-01-16T15:18:17;28.65;;;10.93;;
69161;SDS011;56269;51.738;21.652;2023-01-16T15:21:03;20.33;;;9.68;;
69161;SDS011;56269;51.738;21.652;2023-01-16T15:23:56;29.27;;;11.15;;
69161;SDS011;56269;51.738;21.652;2023-01-16T15:26:31;20.80;;;9.18;;
69161;SDS011;56269;51.738;21.652;2023-01-16T15:29:21;37.27;;;15.00;;
69161;SDS011;56269;51.738;21.652;2023-01-16T15:31:58;22.50;;;9.70;;
69161;SDS011;56269;51.738;21.652;2023-01-16T15:34:29;38.72;;;14.50;;
69161;SDS011;56269;51.738;21.652;2023-01-16T15:36:58;26.73;;;11.15;;
69161;SDS011;56269;51.738;21.652;2023-01-16T15:39:40;29.20;;;11.68;;
69161;SDS011;56269;51.738;21.652;2023-01-16T15:44:58;30.52;;;12.23;;
69161;SDS011;56269;51.738;21.652;2023-01-16T15:47:55;19.60;;;8.15;;
69161;SDS011;56269;51.738;21.652;2023-01-16T15:53:11;26.23;;;10.23;;
69161;SDS011;56269;51.738;21.652;2023-01-16T15:55:38;23.53;;;10.13;;
69161;SDS011;56269;51.738;21.652;2023-01-16T15:58:17;23.67;;;10.10;;
69161;SDS011;56269;51.738;21.652;2023-01-16T16:00:55;25.77;;;10.77;;
69161;SDS011;56269;51.738;21.652;2023-01-16T16:03:36;24.80;;;9.45;;
69161;SDS011;56269;51.738;21.652;2023-01-16T16:06:05;19.35;;;9.60;;
69161;SDS011;56269;51.738;21.652;2023-01-16T16:08:38;16.60;;;8.17;;
69161;SDS011;56269;51.738;21.652;2023-01-16T16:11:07;25.58;;;11.43;;
69161;SDS011;56269;51.738;21.652;2023-01-16T16:13:53;27.92;;;12.30;;
69161;SDS011;56269;51.738;21.652;2023-01-16T16:16:22;24.80;;;10.20;;
69161;SDS011;56269;51.738;21.652;2023-01-16T16:19:09;29.77;;;12.18;;
69161;SDS011;56269;51.738;21.652;2023-01-16T16:21:56;22.03;;;9.67;;
69161;SDS011;56269;51.738;21.652;2023-01-16T16:24:55;19.27;;;8.40;;
69161;SDS011;56269;51.738;21.652;2023-01-16T16:27:21;26.17;;;10.90;;
69161;SDS011;56269;51.738;21.652;2023-01-16T16:29:49;18.60;;;8.73;;
69161;SDS011;56269;51.738;21.652;2023-01-16T16:32:16;22.20;;;10.00;;
69161;SDS011;56269;51.738;21.652;2023-01-16T16:34:53;22.93;;;10.30;;
69161;SDS011;56269;51.738;21.652;2023-01-16T16:37:21;24.58;;;9.57;;
69161;SDS011;56269;51.738;21.652;2023-01-16T16:40:05;21.42;;;9.93;;
69161;SDS011;56269;51.738;21.652;2023-01-16T16:45:21;17.88;;;9.13;;
69161;SDS011;56269;51.738;21.652;2023-01-16T16:50:50;17.65;;;7.85;;
69161;SDS011;56269;51.738;21.652;2023-01-16T16:53:35;15.95;;;6.60;;
69161;SDS011;56269;51.738;21.652;2023-01-16T16:56:10;15.50;;;6.40;;
69161;SDS011;56269;51.738;21.652;2023-01-16T16:58:42;15.18;;;6.72;;
69161;SDS011;56269;51.738;21.652;2023-01-16T17:01:11;18.53;;;7.47;;
69161;SDS011;56269;51.738;21.652;2023-01-16T17:03:38;20.10;;;7.47;;
69161;SDS011;56269;51.738;21.652;2023-01-16T17:06:12;15.35;;;6.85;;
69161;SDS011;56269;51.738;21.652;2023-01-16T17:08:40;21.70;;;8.88;;
69161;SDS011;56269;51.738;21.652;2023-01-16T17:11:09;16.30;;;7.05;;
69161;SDS011;56269;51.738;21.652;2023-01-16T17:13:36;13.07;;;6.03;;
69161;SDS011;56269;51.738;21.652;2023-01-16T17:16:03;21.45;;;8.80;;
69161;SDS011;56269;51.738;21.652;2023-01-16T17:18:31;17.90;;;7.80;;
69161;SDS011;56269;51.738;21.652;2023-01-16T17:20:58;14.85;;;6.60;;
69161;SDS011;56269;51.738;21.652;2023-01-16T17:23:26;18.17;;;7.95;;
69161;SDS011;56269;51.738;21.652;2023-01-16T17:25:53;19.03;;;8.37;;
69161;SDS011;56269;51.738;21.652;2023-01-16T17:28:19;15.98;;;5.78;;
69161;SDS011;56269;51.738;21.652;2023-01-16T17:30:46;21.05;;;9.25;;
69161;SDS011;56269;51.738;21.652;2023-01-16T17:35:42;16.02;;;7.07;;